Denver (DEN/KDEN)

Information

Location
Denver, CO
Local Time
17:22 / 5:22 pm
GMT Time
00:22 / 12:22 am
Gates
Unassigned
No FAA reported delays
METAR KDEN 222353Z 06015KT 10SM SCT100 SCT200 11/M07 A2973 RMK AO2 SLP035 T01061072 10139 20094 56008
TAF KDEN 222333Z 2300/2406 08014G22KT P6SM FEW100 FM230200 12010KT P6SM SCT100 BKN120 FM230500 16008KT P6SM SCT060 BKN090 FM230800 30008KT P6SM SCT060 BKN090 FM231600 34014KT P6SM VCSH SCT040 BKN060 FM232200 35018G26KT 5SM -SHSN BKN020 OVC040 FM240100 01014G2
  • No charts available